Time;durP1;ratioP1;P1;durP2;ratioP2;P2;SDS_P1;SDS_P2;PMS_P1;PMS_P2;Temp;Humidity;BMP_temperature;BMP_pressure;BME280_temperature;BME280_humidity;BME280_pressure;Samples;Min_cycle;Max_cycle;Signal;HPM_P1;HPM_P2
2023/01/15 00:01:05;;;;;;;;;;;9.90;99.90;;;;;;7346662;19;109489;-90
2023/01/15 00:03:32;;;;;;;;;;;9.90;99.90;;;;;;7341617;19;108721;-91
2023/01/15 00:06:02;;;;;;;;;;;9.90;99.90;;;;;;7345392;19;112327;-89
2023/01/15 00:08:31;;;;;;;;;;;9.90;99.90;;;;;;7341096;19;109707;-89
2023/01/15 00:11:01;;;;;;;;;;;9.80;99.90;;;;;;7343391;19;108697;-90
2023/01/15 00:13:28;;;;;;;;;;;9.80;99.90;;;;;;7341862;19;108726;-88
2023/01/15 00:16:02;;;;;;;;;;;9.90;99.90;;;;;;7343147;19;109803;-89
2023/01/15 00:18:30;;;;;;;;;;;9.80;99.90;;;;;;7340759;19;109986;-89
2023/01/15 00:20:57;;;;;;;;;;;9.80;99.90;;;;;;7341852;19;109207;-89
2023/01/15 00:29:02;;;;;;;;;;;9.80;99.90;;;;;;7342656;19;113159;-89
2023/01/15 00:31:30;;;;;;;;;;;9.80;99.90;;;;;;7340656;19;108621;-89
2023/01/15 00:33:57;;;;;;;;;;;9.80;99.90;;;;;;7342768;19;109487;-90
2023/01/15 00:36:24;;;;;;;;;;;9.80;99.90;;;;;;7341530;19;109634;-89
2023/01/15 00:38:52;;;;;;;;;;;9.80;99.90;;;;;;7342729;19;108525;-90
2023/01/15 00:41:19;;;;;;;;;;;9.80;99.90;;;;;;7340898;19;108896;-90
2023/01/15 00:43:46;;;;;;;;;;;9.70;99.90;;;;;;7341335;19;109724;-90
2023/01/15 00:46:13;;;;;;;;;;;9.80;99.90;;;;;;7348275;19;108671;-90
2023/01/15 00:48:40;;;;;;;;;;;9.80;99.90;;;;;;7342776;19;114483;-89
2023/01/15 00:51:06;;;;;;;;;;;9.80;99.90;;;;;;7340827;19;110172;-89
2023/01/15 00:53:33;;;;;;;;;;;9.70;99.90;;;;;;7339080;19;110473;-90
2023/01/15 00:56:00;;;;;;;;;;;9.70;99.90;;;;;;7339824;19;112752;-89
2023/01/15 00:58:27;;;;;;;;;;;9.70;99.90;;;;;;7341729;19;108196;-90
2023/01/15 01:00:59;;;;;;;;;;;9.70;99.90;;;;;;7342414;19;109079;-90
2023/01/15 01:03:27;;;;;;;;;;;9.80;99.90;;;;;;7339265;19;108644;-89
2023/01/15 01:05:58;;;;;;;;;;;9.70;99.90;;;;;;7341242;19;108655;-89
2023/01/15 01:08:25;;;;;;;;;;;9.70;99.90;;;;;;7344291;19;109237;-89
2023/01/15 01:11:05;;;;;;;;;;;9.70;99.90;;;;;;7340364;19;109980;-88
2023/01/15 01:13:32;;;;;;;;;;;9.70;99.90;;;;;;7337388;19;109628;-90
2023/01/15 01:15:59;;;;;;;;;;;9.70;99.90;;;;;;7338830;19;110406;-91
2023/01/15 01:18:27;;;;;;;;;;;9.70;99.90;;;;;;7340982;19;108916;-90
2023/01/15 01:20:54;;;;;;;;;;;9.70;99.90;;;;;;7340531;19;109633;-89
2023/01/15 01:23:22;;;;;;;;;;;9.70;99.90;;;;;;7339983;19;110270;-89
2023/01/15 01:25:49;;;;;;;;;;;9.70;99.90;;;;;;7340701;19;109575;-89
2023/01/15 01:28:16;;;;;;;;;;;9.70;99.90;;;;;;7339310;19;109392;-89
2023/01/15 01:30:43;;;;;;;;;;;9.70;99.90;;;;;;7346691;19;110491;-89
2023/01/15 01:33:10;;;;;;;;;;;9.60;99.90;;;;;;7338264;19;110702;-89
2023/01/15 01:35:37;;;;;;;;;;;9.70;99.90;;;;;;7340455;19;111465;-89
2023/01/15 01:38:04;;;;;;;;;;;9.70;99.90;;;;;;7342103;19;108517;-89
2023/01/15 01:40:30;;;;;;;;;;;9.70;99.90;;;;;;7339299;19;109067;-88
2023/01/15 01:42:57;;;;;;;;;;;9.70;99.90;;;;;;7339264;19;110541;-88
2023/01/15 01:45:26;;;;;;;;;;;9.60;99.90;;;;;;7339383;19;109548;-89
2023/01/15 01:47:55;;;;;;;;;;;9.70;99.90;;;;;;7339288;19;109133;-89
2023/01/15 01:50:22;;;;;;;;;;;9.60;99.90;;;;;;7342988;19;112176;-89
2023/01/15 01:52:55;;;;;;;;;;;9.60;99.90;;;;;;7341099;19;108426;-89
2023/01/15 01:55:22;;;;;;;;;;;9.60;99.90;;;;;;7338499;19;110685;-89
2023/01/15 01:57:50;;;;;;;;;;;9.60;99.90;;;;;;7341499;19;108473;-88
2023/01/15 02:00:18;;;;;;;;;;;9.70;99.90;;;;;;7340099;19;110431;-90
2023/01/15 02:02:46;;;;;;;;;;;9.70;99.90;;;;;;7339645;19;109804;-89
2023/01/15 02:05:15;;;;;;;;;;;9.60;99.90;;;;;;7338679;19;108410;-89
2023/01/15 02:07:42;;;;;;;;;;;9.60;99.90;;;;;;7339703;19;108691;-89
2023/01/15 02:10:13;;;;;;;;;;;9.60;99.90;;;;;;7338560;19;109719;-90
2023/01/15 02:12:41;;;;;;;;;;;9.60;99.90;;;;;;7341558;19;108798;-90
2023/01/15 02:15:08;;;;;;;;;;;9.60;99.90;;;;;;7338127;19;110011;-89
2023/01/15 02:17:43;;;;;;;;;;;9.60;99.90;;;;;;7335700;19;108997;-88
2023/01/15 02:20:22;;;;;;;;;;;9.50;99.90;;;;;;7336935;19;112932;-91
2023/01/15 02:22:49;;;;;;;;;;;9.60;99.90;;;;;;7338337;19;110349;-90
2023/01/15 02:25:35;;;;;;;;;;;9.60;99.90;;;;;;7336968;19;108308;-89
2023/01/15 02:28:20;;;;;;;;;;;9.50;99.90;;;;;;7338943;19;110086;-89
2023/01/15 02:30:51;;;;;;;;;;;9.50;99.90;;;;;;7337501;19;110301;-89
2023/01/15 02:33:25;;;;;;;;;;;9.50;99.90;;;;;;7337166;19;108770;-89
2023/01/15 02:36:05;;;;;;;;;;;9.50;99.90;;;;;;7342443;19;108401;-89
2023/01/15 02:38:35;;;;;;;;;;;9.50;99.90;;;;;;7335266;19;108766;-89
2023/01/15 02:41:02;;;;;;;;;;;9.40;99.90;;;;;;7336109;19;109860;-89
2023/01/15 02:43:32;;;;;;;;;;;9.40;99.90;;;;;;7336944;19;110755;-89
2023/01/15 02:46:01;;;;;;;;;;;9.40;99.90;;;;;;7340244;19;110246;-90
2023/01/15 02:48:28;;;;;;;;;;;9.40;99.90;;;;;;7343432;19;109515;-89
2023/01/15 02:51:16;;;;;;;;;;;9.40;99.90;;;;;;7343920;19;112079;-90
2023/01/15 02:53:45;;;;;;;;;;;9.40;99.90;;;;;;7341612;19;108584;-89
2023/01/15 02:56:14;;;;;;;;;;;9.30;99.90;;;;;;7345655;19;108227;-89
2023/01/15 02:58:43;;;;;;;;;;;9.40;99.90;;;;;;7348950;19;109926;-88
2023/01/15 03:01:17;;;;;;;;;;;9.30;99.90;;;;;;7345684;19;111562;-89
2023/01/15 03:03:50;;;;;;;;;;;9.30;99.90;;;;;;7344009;19;110410;-89
2023/01/15 03:06:26;;;;;;;;;;;9.40;99.90;;;;;;7341969;19;108974;-89
2023/01/15 03:08:53;;;;;;;;;;;9.40;99.90;;;;;;7342204;19;108836;-89
2023/01/15 03:11:20;;;;;;;;;;;9.30;99.90;;;;;;7343924;19;111289;-89
2023/01/15 03:13:53;;;;;;;;;;;9.40;99.90;;;;;;7344383;19;108304;-89
2023/01/15 03:16:38;;;;;;;;;;;9.40;99.90;;;;;;7344422;19;108596;-89
2023/01/15 03:19:16;;;;;;;;;;;9.40;99.90;;;;;;7343419;19;112022;-89
2023/01/15 03:21:50;;;;;;;;;;;9.40;99.90;;;;;;7350163;19;109105;-89
2023/01/15 03:24:20;;;;;;;;;;;9.40;99.90;;;;;;7343502;19;110570;-89
2023/01/15 03:26:47;;;;;;;;;;;9.40;99.90;;;;;;7345255;19;109098;-89
2023/01/15 03:29:14;;;;;;;;;;;9.40;99.90;;;;;;7341401;19;108872;-89
2023/01/15 03:31:43;;;;;;;;;;;9.40;99.90;;;;;;7344749;19;110331;-89
2023/01/15 03:34:11;;;;;;;;;;;9.40;99.90;;;;;;7344840;19;108344;-88
2023/01/15 03:36:38;;;;;;;;;;;9.40;99.90;;;;;;7342830;19;109464;-89
2023/01/15 03:39:05;;;;;;;;;;;9.40;99.90;;;;;;7342988;19;110975;-89
2023/01/15 03:41:45;;;;;;;;;;;9.30;99.90;;;;;;7340533;19;108428;-89
2023/01/15 03:44:24;;;;;;;;;;;9.40;99.90;;;;;;7348085;19;108845;-90
2023/01/15 03:47:09;;;;;;;;;;;9.30;99.90;;;;;;7344384;19;108736;-89
2023/01/15 03:49:54;;;;;;;;;;;9.40;99.90;;;;;;7344485;19;109426;-89
2023/01/15 03:52:34;;;;;;;;;;;9.30;99.90;;;;;;7341750;19;111083;-89
2023/01/15 03:55:08;;;;;;;;;;;9.30;99.90;;;;;;7346871;19;108494;-89
2023/01/15 03:57:40;;;;;;;;;;;9.30;99.90;;;;;;7345671;19;109161;-89
2023/01/15 04:00:14;;;;;;;;;;;9.30;99.90;;;;;;7345557;19;110091;-89
2023/01/15 04:02:44;;;;;;;;;;;9.30;99.90;;;;;;7345114;19;110174;-90
2023/01/15 04:05:12;;;;;;;;;;;9.30;99.90;;;;;;7349608;19;108469;-89
2023/01/15 04:07:39;;;;;;;;;;;9.30;99.90;;;;;;7345047;19;108550;-88
2023/01/15 04:10:07;;;;;;;;;;;9.30;99.90;;;;;;7346046;19;108532;-89
2023/01/15 04:12:34;;;;;;;;;;;9.20;99.90;;;;;;7345973;19;114104;-89
2023/01/15 04:15:02;;;;;;;;;;;9.20;99.90;;;;;;7345616;19;108803;-88
2023/01/15 04:17:29;;;;;;;;;;;9.20;99.90;;;;;;7346364;19;110814;-89
2023/01/15 04:19:57;;;;;;;;;;;9.20;99.90;;;;;;7346529;19;110623;-89
2023/01/15 04:22:23;;;;;;;;;;;9.20;99.90;;;;;;7343834;19;109996;-90
2023/01/15 04:24:50;;;;;;;;;;;9.20;99.90;;;;;;7347930;19;108723;-90
2023/01/15 04:27:17;;;;;;;;;;;9.20;99.90;;;;;;7358581;19;113299;-90
2023/01/15 04:29:44;;;;;;;;;;;9.10;99.90;;;;;;7352529;19;108778;-89
2023/01/15 04:32:11;;;;;;;;;;;9.10;99.90;;;;;;7348673;19;109366;-89
2023/01/15 04:34:38;;;;;;;;;;;9.10;99.90;;;;;;7354322;19;108492;-89
2023/01/15 04:37:05;;;;;;;;;;;9.10;99.90;;;;;;7354857;19;108837;-88
2023/01/15 04:39:32;;;;;;;;;;;9.10;99.90;;;;;;7353102;19;110693;-87
2023/01/15 04:45:02;;;;;;;;;;;9.10;99.90;;;;;;7349536;19;108427;-89
2023/01/15 04:47:33;;;;;;;;;;;9.10;99.90;;;;;;7344590;19;128671;-89
2023/01/15 04:49:59;;;;;;;;;;;9.10;99.90;;;;;;7350612;19;109421;-90
2023/01/15 04:52:26;;;;;;;;;;;9.10;99.90;;;;;;7342612;19;110266;-91
2023/01/15 04:54:54;;;;;;;;;;;9.00;99.90;;;;;;7341715;19;109080;-89
2023/01/15 04:57:21;;;;;;;;;;;9.10;99.90;;;;;;7340760;19;108807;-89
2023/01/15 04:59:48;;;;;;;;;;;9.10;99.90;;;;;;7340996;19;108884;-90
2023/01/15 05:02:15;;;;;;;;;;;9.00;99.90;;;;;;7336520;19;109763;-90
2023/01/15 05:04:43;;;;;;;;;;;9.10;99.90;;;;;;7337710;19;109774;-89
2023/01/15 05:07:10;;;;;;;;;;;9.00;99.90;;;;;;7337605;19;110354;-89
2023/01/15 05:09:37;;;;;;;;;;;9.00;99.90;;;;;;7335724;19;108767;-89
2023/01/15 05:12:05;;;;;;;;;;;9.00;99.90;;;;;;7343228;19;109639;-88
2023/01/15 05:14:32;;;;;;;;;;;9.00;99.90;;;;;;7335681;19;109063;-89
2023/01/15 05:16:59;;;;;;;;;;;9.00;99.90;;;;;;7336857;19;109326;-89
2023/01/15 05:19:26;;;;;;;;;;;9.00;99.90;;;;;;7338289;19;108589;-88
2023/01/15 05:21:53;;;;;;;;;;;9.00;99.90;;;;;;7338053;19;109875;-89
2023/01/15 05:24:20;;;;;;;;;;;8.90;99.90;;;;;;7338817;19;111613;-89
2023/01/15 05:26:47;;;;;;;;;;;8.90;99.90;;;;;;7340683;19;110346;-88
2023/01/15 05:29:17;;;;;;;;;;;8.90;99.90;;;;;;7338213;19;109046;-89
2023/01/15 05:31:44;;;;;;;;;;;8.90;99.90;;;;;;7338573;19;108822;-89
2023/01/15 05:34:11;;;;;;;;;;;8.90;99.90;;;;;;7342882;19;110568;-89
2023/01/15 05:36:39;;;;;;;;;;;8.90;99.90;;;;;;7338863;19;109243;-89
2023/01/15 05:39:06;;;;;;;;;;;8.90;99.90;;;;;;7338126;19;110815;-89
2023/01/15 05:41:48;;;;;;;;;;;8.90;99.90;;;;;;7337162;19;108996;-88
2023/01/15 05:44:21;;;;;;;;;;;8.80;99.90;;;;;;7338371;19;108612;-90
2023/01/15 05:46:48;;;;;;;;;;;8.80;99.90;;;;;;7340097;19;110192;-89
2023/01/15 05:49:18;;;;;;;;;;;8.80;99.90;;;;;;7338273;19;108622;-90
2023/01/15 05:51:45;;;;;;;;;;;8.80;99.90;;;;;;7338153;19;109228;-89
2023/01/15 05:54:14;;;;;;;;;;;8.80;99.90;;;;;;7338443;19;110307;-89
2023/01/15 05:56:41;;;;;;;;;;;8.80;99.90;;;;;;7344721;19;108461;-89
2023/01/15 05:59:08;;;;;;;;;;;8.80;99.90;;;;;;7339351;19;109739;-88
2023/01/15 06:01:36;;;;;;;;;;;8.80;99.90;;;;;;7336318;19;108511;-89
2023/01/15 06:04:04;;;;;;;;;;;8.80;99.90;;;;;;7337707;19;109159;-88
2023/01/15 06:06:31;;;;;;;;;;;8.80;99.90;;;;;;7338708;19;110248;-90
2023/01/15 06:08:59;;;;;;;;;;;8.80;99.90;;;;;;7338750;19;108416;-90
2023/01/15 06:11:26;;;;;;;;;;;8.80;99.90;;;;;;7338905;19;108940;-89
2023/01/15 06:13:53;;;;;;;;;;;8.80;99.90;;;;;;7338162;19;110210;-89
2023/01/15 06:16:20;;;;;;;;;;;8.70;99.90;;;;;;7344892;19;109671;-90
2023/01/15 06:18:47;;;;;;;;;;;8.70;99.90;;;;;;7338484;19;113417;-90
2023/01/15 06:21:15;;;;;;;;;;;8.70;99.90;;;;;;7344265;19;110401;-89
2023/01/15 06:23:42;;;;;;;;;;;8.70;99.90;;;;;;7345697;19;108390;-89
2023/01/15 06:26:10;;;;;;;;;;;8.70;99.90;;;;;;7345830;19;109807;-89
2023/01/15 06:28:38;;;;;;;;;;;8.70;99.90;;;;;;7342923;19;109113;-89
2023/01/15 06:31:05;;;;;;;;;;;8.70;99.90;;;;;;7346772;19;112123;-89
2023/01/15 06:33:32;;;;;;;;;;;8.60;99.90;;;;;;7341330;19;110193;-89
2023/01/15 06:36:10;;;;;;;;;;;8.60;99.90;;;;;;7345768;19;108656;-89
2023/01/15 06:38:39;;;;;;;;;;;8.60;99.90;;;;;;7349404;19;109101;-89
2023/01/15 06:47:19;;;;;;;;;;;8.60;99.90;;;;;;7344055;19;109029;-89
2023/01/15 06:49:29;;;;;;;;;;;8.50;99.90;;;;;;7343586;19;108977;-89
2023/01/15 06:51:56;;;;;;;;;;;8.50;99.90;;;;;;7344143;19;111156;-89
2023/01/15 06:54:25;;;;;;;;;;;8.50;99.90;;;;;;7343418;19;111732;-89
2023/01/15 06:56:53;;;;;;;;;;;8.40;99.90;;;;;;7344622;19;108586;-88
2023/01/15 06:59:20;;;;;;;;;;;8.40;99.90;;;;;;7342009;19;110297;-88
2023/01/15 07:01:47;;;;;;;;;;;8.40;99.90;;;;;;7349373;19;110170;-90
2023/01/15 07:04:15;;;;;;;;;;;8.30;99.90;;;;;;7341778;19;110438;-89
2023/01/15 07:06:42;;;;;;;;;;;8.30;99.90;;;;;;7344093;19;110633;-88
2023/01/15 07:09:09;;;;;;;;;;;8.20;99.90;;;;;;7344873;19;108433;-88
2023/01/15 07:11:48;;;;;;;;;;;8.20;99.90;;;;;;7343481;19;109639;-90
2023/01/15 07:14:19;;;;;;;;;;;8.20;99.90;;;;;;7342941;19;110054;-90
2023/01/15 07:16:46;;;;;;;;;;;8.20;99.90;;;;;;7344317;19;109722;-89
2023/01/15 07:19:14;;;;;;;;;;;8.20;99.90;;;;;;7345387;19;109203;-89
2023/01/15 07:21:41;;;;;;;;;;;8.10;99.90;;;;;;7345007;19;109584;-89
2023/01/15 07:24:09;;;;;;;;;;;8.10;99.90;;;;;;7349097;19;108370;-89
2023/01/15 07:26:36;;;;;;;;;;;8.00;99.90;;;;;;7340799;19;110515;-89
2023/01/15 07:29:04;;;;;;;;;;;8.00;99.90;;;;;;7343867;19;108699;-87
2023/01/15 07:31:31;;;;;;;;;;;8.00;99.90;;;;;;7341216;19;109672;-89
2023/01/15 07:33:59;;;;;;;;;;;7.90;99.90;;;;;;7341080;19;109925;-89
2023/01/15 07:36:26;;;;;;;;;;;7.90;99.90;;;;;;7341452;19;108992;-89
2023/01/15 07:38:52;;;;;;;;;;;7.90;99.90;;;;;;7342049;19;111228;-89
2023/01/15 07:49:49;;;;;;;;;;;7.80;99.90;;;;;;7341406;19;108871;-89
2023/01/15 07:52:17;;;;;;;;;;;7.80;99.90;;;;;;7341717;19;109453;-88
2023/01/15 07:54:45;;;;;;;;;;;7.80;99.90;;;;;;7343154;19;112755;-89
2023/01/15 07:57:14;;;;;;;;;;;7.80;99.90;;;;;;7341854;19;108375;-88
2023/01/15 07:59:43;;;;;;;;;;;7.80;99.90;;;;;;7348825;19;108649;-93
2023/01/15 08:02:10;;;;;;;;;;;7.70;99.90;;;;;;7350234;19;111739;-92
2023/01/15 08:04:40;;;;;;;;;;;7.70;99.90;;;;;;7349172;19;108490;-93
2023/01/15 08:07:08;;;;;;;;;;;7.70;99.90;;;;;;7354563;19;108797;-93
2023/01/15 08:09:35;;;;;;;;;;;7.70;99.90;;;;;;7339899;19;113502;-88
2023/01/15 08:17:33;;;;;;;;;;;7.70;99.90;;;;;;7343616;19;110523;-90
2023/01/15 08:20:02;;;;;;;;;;;7.70;99.90;;;;;;7341856;19;108790;-88
2023/01/15 08:22:29;;;;;;;;;;;7.70;99.90;;;;;;7338687;19;109953;-89
2023/01/15 08:24:56;;;;;;;;;;;7.70;99.90;;;;;;7341232;19;108901;-88
2023/01/15 08:27:23;;;;;;;;;;;7.70;99.90;;;;;;7340050;19;108630;-89
2023/01/15 08:29:50;;;;;;;;;;;7.70;99.90;;;;;;7346016;19;109754;-90
2023/01/15 08:32:17;;;;;;;;;;;7.80;99.90;;;;;;7338892;19;108980;-89
2023/01/15 08:34:44;;;;;;;;;;;7.80;99.90;;;;;;7342837;19;109348;-88
2023/01/15 08:37:11;;;;;;;;;;;7.80;99.90;;;;;;7342043;19;109686;-92
2023/01/15 08:39:38;;;;;;;;;;;7.90;99.90;;;;;;7335887;19;110528;-89
2023/01/15 08:42:05;;;;;;;;;;;7.90;99.90;;;;;;7334609;19;112771;-89
2023/01/15 08:44:32;;;;;;;;;;;7.90;99.90;;;;;;7333084;19;109213;-90
2023/01/15 08:46:59;;;;;;;;;;;7.90;99.90;;;;;;7340836;19;108819;-89
2023/01/15 08:49:26;;;;;;;;;;;7.90;99.90;;;;;;7339434;19;109404;-89
2023/01/15 08:51:53;;;;;;;;;;;7.90;99.90;;;;;;7341480;19;108698;-89
2023/01/15 08:54:23;;;;;;;;;;;7.90;99.90;;;;;;7342577;19;109793;-90
2023/01/15 08:56:50;;;;;;;;;;;7.80;99.90;;;;;;7360571;19;108260;-90
2023/01/15 08:59:20;;;;;;;;;;;7.80;99.90;;;;;;7369603;19;109361;-89
2023/01/15 09:01:47;;;;;;;;;;;7.80;99.90;;;;;;7375078;19;108863;-90
2023/01/15 09:04:15;;;;;;;;;;;7.80;99.90;;;;;;7370928;19;108219;-90
2023/01/15 09:06:43;;;;;;;;;;;7.80;99.90;;;;;;7367163;19;108697;-90
2023/01/15 09:09:10;;;;;;;;;;;7.90;99.90;;;;;;7369168;19;108299;-90
2023/01/15 09:11:43;;;;;;;;;;;7.80;99.90;;;;;;7369546;19;108430;-90
2023/01/15 09:14:12;;;;;;;;;;;7.90;99.90;;;;;;7376874;19;109280;-90
2023/01/15 09:16:59;;;;;;;;;;;7.90;99.90;;;;;;7369419;19;108097;-89
2023/01/15 09:19:29;;;;;;;;;;;7.90;99.90;;;;;;7355995;19;108465;-91
2023/01/15 09:21:58;;;;;;;;;;;8.00;99.90;;;;;;7367441;19;110222;-90
2023/01/15 09:24:25;;;;;;;;;;;8.10;99.90;;;;;;7368235;19;107985;-90
2023/01/15 09:26:52;;;;;;;;;;;8.20;99.90;;;;;;7365127;19;108212;-90
2023/01/15 09:29:19;;;;;;;;;;;8.20;99.90;;;;;;7368630;19;108726;-89
2023/01/15 09:31:46;;;;;;;;;;;8.30;99.90;;;;;;7366805;19;108183;-89
2023/01/15 09:34:13;;;;;;;;;;;8.40;99.90;;;;;;7364094;19;108261;-90
2023/01/15 09:36:40;;;;;;;;;;;8.40;99.90;;;;;;7363503;19;109654;-89
2023/01/15 09:39:07;;;;;;;;;;;8.50;99.90;;;;;;7360109;19;108725;-90
2023/01/15 09:44:31;;;;;;;;;;;8.70;99.90;;;;;;7357530;19;108126;-89
2023/01/15 09:47:05;;;;;;;;;;;8.70;99.90;;;;;;7361893;19;108391;-90
2023/01/15 09:50:01;;;;;;;;;;;8.70;99.90;;;;;;7362709;19;109485;-89
2023/01/15 09:52:30;;;;;;;;;;;8.70;99.90;;;;;;7358490;19;108864;-90
2023/01/15 09:55:00;;;;;;;;;;;8.60;99.90;;;;;;7360978;19;111666;-89
2023/01/15 09:57:27;;;;;;;;;;;8.40;99.90;;;;;;7357855;19;108546;-90
2023/01/15 10:00:00;;;;;;;;;;;8.40;99.90;;;;;;7362149;19;108496;-90
2023/01/15 10:02:37;;;;;;;;;;;8.40;99.90;;;;;;7354126;19;109063;-89
2023/01/15 10:05:08;;;;;;;;;;;8.40;99.90;;;;;;7355360;19;108903;-90
2023/01/15 10:07:44;;;;;;;;;;;8.40;99.90;;;;;;7353203;19;108905;-90
2023/01/15 10:10:13;;;;;;;;;;;8.50;99.90;;;;;;7356464;19;109103;-89
2023/01/15 10:12:44;;;;;;;;;;;8.50;99.90;;;;;;7367120;19;108186;-90
2023/01/15 10:15:34;;;;;;;;;;;8.50;99.90;;;;;;7343365;19;108544;-89
2023/01/15 10:18:01;;;;;;;;;;;8.50;99.90;;;;;;7350720;19;109152;-89
2023/01/15 10:20:40;;;;;;;;;;;8.50;99.90;;;;;;7352253;19;109535;-89
2023/01/15 10:23:09;;;;;;;;;;;8.40;99.90;;;;;;7349434;19;109167;-89
2023/01/15 10:25:45;;;;;;;;;;;8.40;99.90;;;;;;7345843;19;108887;-89
2023/01/15 10:28:32;;;;;;;;;;;8.40;99.90;;;;;;7350495;19;108635;-89
2023/01/15 10:31:05;;;;;;;;;;;8.30;99.90;;;;;;7350891;19;109519;-88
2023/01/15 10:33:34;;;;;;;;;;;8.30;99.90;;;;;;7351242;19;108794;-88
2023/01/15 10:36:22;;;;;;;;;;;8.30;99.90;;;;;;7354956;19;109681;-90
2023/01/15 10:38:55;;;;;;;;;;;8.20;99.90;;;;;;7350856;19;112205;-89
2023/01/15 10:41:31;;;;;;;;;;;8.30;99.90;;;;;;7353927;19;108178;-91
2023/01/15 10:44:02;;;;;;;;;;;8.40;99.90;;;;;;7359121;19;111132;-89
2023/01/15 10:46:32;;;;;;;;;;;8.40;99.90;;;;;;7345263;19;108737;-88
2023/01/15 10:49:02;;;;;;;;;;;8.40;99.90;;;;;;7348624;19;108768;-88
2023/01/15 10:51:33;;;;;;;;;;;8.50;99.90;;;;;;7348062;19;110575;-89
2023/01/15 10:54:03;;;;;;;;;;;8.50;99.90;;;;;;7347564;19;108353;-89
2023/01/15 10:56:40;;;;;;;;;;;8.50;99.90;;;;;;7348188;19;109526;-89
2023/01/15 10:59:14;;;;;;;;;;;8.60;99.90;;;;;;7350614;19;108906;-90
2023/01/15 11:01:41;;;;;;;;;;;8.60;99.90;;;;;;7346505;19;108459;-88
2023/01/15 11:04:12;;;;;;;;;;;8.60;99.90;;;;;;7341342;19;108458;-88
2023/01/15 11:06:39;;;;;;;;;;;8.60;99.90;;;;;;7349870;19;110225;-89
2023/01/15 11:09:07;;;;;;;;;;;8.60;99.90;;;;;;7351522;19;109114;-89
2023/01/15 11:19:35;;;;;;;;;;;8.60;99.90;;;;;;7346762;19;112722;-88
2023/01/15 11:20:15;;;;;;;;;;;8.60;99.90;;;;;;7347768;19;109955;-89
2023/01/15 11:22:42;;;;;;;;;;;8.70;99.90;;;;;;7346364;19;108739;-89
2023/01/15 11:25:10;;;;;;;;;;;8.80;99.90;;;;;;7351693;19;108639;-89
2023/01/15 11:27:38;;;;;;;;;;;8.80;99.90;;;;;;7344974;19;112548;-89
2023/01/15 11:30:06;;;;;;;;;;;8.90;99.90;;;;;;7355203;19;109906;-89
2023/01/15 11:32:34;;;;;;;;;;;8.80;99.90;;;;;;7349877;19;109330;-89
2023/01/15 11:35:07;;;;;;;;;;;8.80;99.90;;;;;;7354946;19;108734;-88
2023/01/15 11:37:34;;;;;;;;;;;8.80;99.90;;;;;;7375610;19;109299;-90
2023/01/15 11:40:05;;;;;;;;;;;8.70;99.90;;;;;;7377506;19;109125;-88
2023/01/15 11:51:11;;;;;;;;;;;8.60;99.90;;;;;;7378113;19;108688;-87
2023/01/15 11:53:55;;;;;;;;;;;8.60;99.90;;;;;;7380883;19;108157;-88
2023/01/15 11:56:43;;;;;;;;;;;8.60;99.90;;;;;;7374078;19;107888;-88
2023/01/15 11:59:12;;;;;;;;;;;8.70;99.90;;;;;;7375851;19;110542;-86
2023/01/15 12:01:49;;;;;;;;;;;8.70;99.90;;;;;;7370132;19;109396;-88
2023/01/15 12:04:25;;;;;;;;;;;8.80;99.90;;;;;;7376715;19;107966;-89
2023/01/15 12:06:52;;;;;;;;;;;8.70;99.90;;;;;;7377904;19;108347;-88
2023/01/15 12:09:37;;;;;;;;;;;8.70;99.90;;;;;;7375140;19;108137;-89
2023/01/15 12:12:07;;;;;;;;;;;8.80;99.90;;;;;;7376459;19;108050;-89
2023/01/15 12:14:57;;;;;;;;;;;8.80;99.90;;;;;;7378156;19;108187;-88
2023/01/15 12:17:32;;;;;;;;;;;8.80;99.90;;;;;;7380422;19;109522;-90
2023/01/15 12:20:01;;;;;;;;;;;8.70;99.90;;;;;;7381203;19;107361;-89
2023/01/15 12:22:47;;;;;;;;;;;8.80;99.90;;;;;;7377053;19;108417;-89
2023/01/15 12:25:19;;;;;;;;;;;8.80;99.90;;;;;;7376503;19;107911;-87
2023/01/15 12:28:06;;;;;;;;;;;8.80;99.90;;;;;;7377767;19;110104;-89
2023/01/15 12:30:46;;;;;;;;;;;8.80;99.90;;;;;;7376695;19;109046;-89
2023/01/15 12:33:13;;;;;;;;;;;8.90;99.90;;;;;;7379962;19;108171;-89
2023/01/15 12:35:42;;;;;;;;;;;8.90;99.90;;;;;;7376470;19;109787;-89
2023/01/15 12:38:17;;;;;;;;;;;9.00;99.90;;;;;;7384597;19;110919;-88
2023/01/15 12:40:50;;;;;;;;;;;8.90;99.90;;;;;;7377953;19;107925;-89
2023/01/15 12:46:16;;;;;;;;;;;8.90;99.90;;;;;;7380529;19;109012;-88
2023/01/15 12:48:55;;;;;;;;;;;8.80;99.90;;;;;;7377357;19;108979;-89
2023/01/15 12:51:27;;;;;;;;;;;8.90;99.90;;;;;;7377109;19;110270;-89
2023/01/15 12:54:13;;;;;;;;;;;8.90;99.90;;;;;;7377875;19;109086;-90
2023/01/15 12:56:43;;;;;;;;;;;8.80;99.90;;;;;;7377510;19;109126;-89
2023/01/15 12:59:24;;;;;;;;;;;8.80;99.90;;;;;;7377222;19;112020;-87
2023/01/15 13:01:57;;;;;;;;;;;8.80;99.90;;;;;;7382791;19;108023;-89
2023/01/15 13:04:47;;;;;;;;;;;8.90;99.90;;;;;;7376608;19;108163;-88
2023/01/15 13:07:14;;;;;;;;;;;8.80;99.90;;;;;;7373147;19;108108;-88
2023/01/15 13:09:47;;;;;;;;;;;8.80;99.90;;;;;;7379166;19;108156;-90
2023/01/15 13:12:15;;;;;;;;;;;8.80;99.90;;;;;;7377456;19;110981;-89
2023/01/15 13:14:42;;;;;;;;;;;8.90;99.90;;;;;;7378402;19;108373;-88
2023/01/15 13:17:18;;;;;;;;;;;8.90;99.90;;;;;;7379402;19;107305;-90
2023/01/15 13:20:10;;;;;;;;;;;8.90;99.90;;;;;;7376456;19;108555;-90
2023/01/15 13:22:41;;;;;;;;;;;8.90;99.90;;;;;;7380880;19;107904;-90
2023/01/15 13:25:18;;;;;;;;;;;8.90;99.90;;;;;;7379918;19;109420;-86
2023/01/15 13:27:56;;;;;;;;;;;8.90;99.90;;;;;;7377124;19;108647;-89
2023/01/15 13:30:33;;;;;;;;;;;8.90;99.90;;;;;;7376076;19;110555;-89
2023/01/15 13:33:12;;;;;;;;;;;8.90;99.90;;;;;;7378280;19;111934;-90
2023/01/15 13:35:45;;;;;;;;;;;8.90;99.90;;;;;;7374811;19;109007;-89
2023/01/15 13:38:18;;;;;;;;;;;9.00;99.90;;;;;;7375228;19;110763;-91
2023/01/15 13:40:49;;;;;;;;;;;8.90;99.90;;;;;;7375574;19;109137;-89
2023/01/15 13:43:34;;;;;;;;;;;8.90;99.90;;;;;;7376835;19;108235;-92
2023/01/15 13:46:02;;;;;;;;;;;8.90;99.90;;;;;;7375556;19;107415;-89
2023/01/15 13:48:56;;;;;;;;;;;8.90;99.90;;;;;;7381588;19;112095;-91
2023/01/15 13:51:26;;;;;;;;;;;8.90;99.90;;;;;;7374215;19;108064;-90
2023/01/15 13:53:54;;;;;;;;;;;8.90;99.90;;;;;;7375921;19;109298;-89
2023/01/15 13:56:25;;;;;;;;;;;9.00;99.90;;;;;;7368982;19;108859;-87
2023/01/15 13:58:53;;;;;;;;;;;9.00;99.90;;;;;;7371939;19;110583;-89
2023/01/15 14:01:22;;;;;;;;;;;9.00;99.90;;;;;;7367561;19;109022;-88
2023/01/15 14:04:01;;;;;;;;;;;9.00;99.90;;;;;;7368334;19;111001;-90
2023/01/15 14:06:54;;;;;;;;;;;8.90;99.90;;;;;;7367407;19;108131;-89
2023/01/15 14:09:21;;;;;;;;;;;8.90;99.90;;;;;;7368373;19;108577;-90
2023/01/15 14:12:01;;;;;;;;;;;8.80;99.90;;;;;;7374375;19;108513;-87
2023/01/15 14:14:47;;;;;;;;;;;8.80;99.90;;;;;;7374484;19;108365;-91
2023/01/15 14:17:18;;;;;;;;;;;8.70;99.90;;;;;;7374740;19;108323;-94
2023/01/15 14:20:03;;;;;;;;;;;8.90;99.90;;;;;;7376335;19;109178;-92
2023/01/15 14:23:06;;;;;;;;;;;9.00;99.90;;;;;;7374930;19;110659;-93
2023/01/15 14:25:39;;;;;;;;;;;9.10;99.90;;;;;;7375187;19;107985;-92
2023/01/15 14:28:26;;;;;;;;;;;9.10;99.90;;;;;;7372914;19;109709;-91
2023/01/15 14:30:53;;;;;;;;;;;9.10;99.90;;;;;;7372518;19;110640;-93
2023/01/15 14:33:34;;;;;;;;;;;9.20;99.90;;;;;;7371771;19;108871;-90
2023/01/15 14:36:15;;;;;;;;;;;9.10;99.90;;;;;;7379422;19;107901;-90
2023/01/15 14:38:49;;;;;;;;;;;9.10;99.90;;;;;;7375001;19;107599;-90
2023/01/15 14:41:27;;;;;;;;;;;9.20;99.90;;;;;;7374931;19;108824;-92
2023/01/15 14:43:57;;;;;;;;;;;9.10;99.90;;;;;;7380623;19;108877;-92
2023/01/15 14:46:40;;;;;;;;;;;9.10;99.90;;;;;;7381546;19;108206;-92
2023/01/15 14:49:27;;;;;;;;;;;9.10;99.90;;;;;;7381722;19;107493;-93
2023/01/15 14:51:54;;;;;;;;;;;9.10;99.90;;;;;;7378221;19;110718;-92
2023/01/15 14:54:23;;;;;;;;;;;9.10;99.90;;;;;;7380319;19;108154;-93
2023/01/15 14:56:54;;;;;;;;;;;9.00;99.90;;;;;;7387641;19;108039;-93
2023/01/15 14:59:27;;;;;;;;;;;9.00;99.90;;;;;;7380527;19;107906;-93
2023/01/15 15:01:56;;;;;;;;;;;9.00;99.90;;;;;;7381099;19;108765;-93
2023/01/15 15:04:27;;;;;;;;;;;9.00;99.90;;;;;;7382139;19;108658;-94
2023/01/15 15:06:56;;;;;;;;;;;8.90;99.90;;;;;;7384666;19;107944;-94
2023/01/15 15:09:29;;;;;;;;;;;8.90;99.90;;;;;;7383242;19;110867;-94
2023/01/15 15:12:18;;;;;;;;;;;8.90;99.90;;;;;;7380031;19;111434;-93
2023/01/15 15:15:00;;;;;;;;;;;8.90;99.90;;;;;;7384975;19;107494;-92
2023/01/15 15:17:42;;;;;;;;;;;8.90;99.90;;;;;;7376449;19;108258;-94
2023/01/15 15:20:23;;;;;;;;;;;8.90;99.90;;;;;;7357935;19;108746;-93
2023/01/15 15:22:53;;;;;;;;;;;8.80;99.90;;;;;;7352813;19;109137;-92
2023/01/15 15:25:22;;;;;;;;;;;8.80;99.90;;;;;;7350581;19;110472;-93
2023/01/15 15:27:59;;;;;;;;;;;8.80;99.90;;;;;;7352144;19;108691;-93